Urb Los Frailes Norte, Puerto Rico
Current Conditions -  °F | °C
As of 2:56 AM on Saturday 20 Dec 2014 (Local Time) from TJSJ Reporting Station
Few Clouds Few Clouds  
Wind Chill: 75°   Ceiling: Unl
Heat Index: 75°   Visibility: 10mi
Dew Point: 69°   Wind: 0mph
Humidity: 82%   Direction: NA
Pressure: 29.97"   Gusts: NA
Location:  18.3866°N, 66.1135°W
Report Text: TJSJ 200656Z 00000KT 10SM FEW033 24/21 A2997 RMK AO2 SLP148 T02390206
Loading
Personal Weather Stations






























Interactive Weather Map New forecast layout! Learn more

10-Day Weather Forecast

Advertisements
Track Severe Weather on mobile